createdAt,value
2018-04-27T00:02:01.914Z,2.83
2018-04-27T00:04:30.121Z,3.50
2018-04-27T00:06:57.544Z,2.90
2018-04-27T00:09:25.752Z,2.40
2018-04-27T00:11:53.174Z,3.30
2018-04-27T00:14:21.371Z,3.23
2018-04-27T00:16:48.807Z,2.63
2018-04-27T00:19:17.007Z,2.83
2018-04-27T00:21:44.423Z,3.30
2018-04-27T00:24:11.855Z,3.00
2018-04-27T00:26:39.278Z,3.10
2018-04-27T00:29:06.710Z,2.80
2018-04-27T00:31:34.130Z,3.50
2018-04-27T00:34:01.563Z,2.97
2018-04-27T00:36:28.990Z,2.97
2018-04-27T00:38:56.414Z,2.90
2018-04-27T00:41:24.602Z,2.83
2018-04-27T00:43:52.806Z,2.93
2018-04-27T00:46:20.991Z,3.20
2018-04-27T00:48:48.437Z,3.50
2018-04-27T00:51:15.854Z,3.13
2018-04-27T00:53:44.057Z,3.43
2018-04-27T00:56:11.471Z,3.23
2018-04-27T00:58:38.903Z,3.30
2018-04-27T01:01:06.330Z,3.60
2018-04-27T01:03:33.759Z,3.40
2018-04-27T01:06:01.963Z,3.23
2018-04-27T01:08:29.381Z,3.63
2018-04-27T01:10:57.574Z,3.83
2018-04-27T01:13:24.995Z,3.50
2018-04-27T01:15:52.431Z,3.63
2018-04-27T01:18:19.872Z,3.40
2018-04-27T01:20:47.307Z,3.80
2018-04-27T01:23:14.718Z,3.40
2018-04-27T01:25:42.151Z,3.53
2018-04-27T01:28:09.578Z,3.27
2018-04-27T01:30:37.006Z,3.60
2018-04-27T01:33:04.433Z,3.43
2018-04-27T01:35:31.861Z,3.77
2018-04-27T01:37:59.300Z,3.57
2018-04-27T01:40:26.730Z,4.10
2018-04-27T01:42:54.159Z,3.57
2018-04-27T01:45:21.594Z,3.47
2018-04-27T01:47:49.024Z,3.53
2018-04-27T01:50:16.458Z,3.30
2018-04-27T01:52:43.883Z,3.30
2018-04-27T01:55:11.314Z,3.90
2018-04-27T01:57:38.739Z,3.60
2018-04-27T02:00:06.171Z,3.93
2018-04-27T02:02:33.615Z,3.30
2018-04-27T02:05:01.042Z,3.00
2018-04-27T02:07:28.473Z,3.90
2018-04-27T02:09:56.675Z,3.30
2018-04-27T02:12:24.110Z,3.00
2018-04-27T02:14:51.553Z,4.40
2018-04-27T02:17:18.983Z,3.70
2018-04-27T02:19:47.193Z,3.40
2018-04-27T02:22:14.623Z,3.70
2018-04-27T02:24:43.007Z,3.13
2018-04-27T02:27:10.462Z,3.47
2018-04-27T02:29:37.904Z,3.77
2018-04-27T02:32:05.351Z,3.67
2018-04-27T02:34:33.567Z,4.10
2018-04-27T02:37:01.094Z,4.30
2018-04-27T02:39:28.439Z,3.33
2018-04-27T02:41:56.647Z,3.63
2018-04-27T02:44:24.072Z,4.00
2018-04-27T02:46:52.271Z,4.10
2018-04-27T02:49:20.379Z,4.33
2018-04-27T02:51:47.822Z,3.47
2018-04-27T02:54:15.680Z,3.83
2018-04-27T02:56:43.127Z,3.97
2018-04-27T02:59:10.557Z,4.03
2018-04-27T03:01:37.995Z,4.20
2018-04-27T03:04:05.427Z,3.57
2018-04-27T03:06:32.863Z,3.30
2018-04-27T03:09:00.306Z,3.70
2018-04-27T03:11:27.739Z,3.70
2018-04-27T03:13:55.167Z,3.80
2018-04-27T03:16:22.608Z,3.27
2018-04-27T03:18:50.039Z,3.73
2018-04-27T03:21:17.473Z,3.70
2018-04-27T03:23:44.921Z,3.30
2018-04-27T03:26:13.118Z,3.57
2018-04-27T03:28:40.534Z,3.50
2018-04-27T03:31:08.747Z,4.17
2018-04-27T03:33:36.170Z,3.90
2018-04-27T03:36:04.371Z,3.30
2018-04-27T03:38:31.791Z,4.20
2018-04-27T03:40:59.994Z,3.30
2018-04-27T03:43:27.422Z,3.27
2018-04-27T03:45:55.637Z,3.67
2018-04-27T03:48:23.420Z,3.70
2018-04-27T03:50:50.920Z,3.70
2018-04-27T03:53:19.208Z,3.67
2018-04-27T03:55:47.447Z,3.90
2018-04-27T03:58:14.974Z,4.20
2018-04-27T04:00:54.240Z,3.63
2018-04-27T04:03:33.578Z,4.10
2018-04-27T04:06:01.060Z,3.50
2018-04-27T04:08:29.171Z,3.77
2018-04-27T04:10:56.691Z,3.97
2018-04-27T04:13:24.936Z,3.63
2018-04-27T04:15:52.455Z,3.47
2018-04-27T04:18:19.963Z,4.27
2018-04-27T04:20:47.492Z,4.27
2018-04-27T04:23:15.006Z,4.30
2018-04-27T04:25:42.523Z,3.60
2018-04-27T04:31:14.173Z,4.07
2018-04-27T04:33:41.631Z,4.03
2018-04-27T04:36:09.095Z,3.80
2018-04-27T04:38:36.677Z,4.60
2018-04-27T04:41:04.127Z,3.97
2018-04-27T04:43:31.572Z,3.30
2018-04-27T04:45:59.007Z,3.30
2018-04-27T04:48:26.438Z,3.90
2018-04-27T04:50:54.855Z,3.67
2018-04-27T04:53:22.271Z,4.07
2018-04-27T04:55:50.462Z,3.90
2018-04-27T04:58:17.919Z,4.63
2018-04-27T05:00:45.359Z,3.83
2018-04-27T05:03:12.791Z,4.40
2018-04-27T05:05:40.517Z,4.30
2018-04-27T05:08:07.942Z,4.13
2018-04-27T05:10:35.446Z,3.80
2018-04-27T05:13:02.812Z,4.00
2018-04-27T05:15:30.247Z,4.30
2018-04-27T05:17:57.670Z,4.10
2018-04-27T05:20:25.384Z,3.60
2018-04-27T05:22:52.820Z,3.70
2018-04-27T05:25:20.260Z,3.63
2018-04-27T05:27:47.682Z,3.90
2018-04-27T05:30:15.102Z,4.20
2018-04-27T05:32:42.543Z,4.30
2018-04-27T05:35:10.005Z,4.97
2018-04-27T05:37:37.489Z,4.07
2018-04-27T05:40:04.911Z,4.70
2018-04-27T05:42:32.347Z,5.50
2018-04-27T05:44:59.775Z,4.30
2018-04-27T05:47:27.195Z,4.93
2018-04-27T05:49:54.639Z,4.63
2018-04-27T05:52:22.066Z,4.23
2018-04-27T05:54:49.490Z,4.73
2018-04-27T05:57:16.935Z,4.30
2018-04-27T05:59:44.362Z,4.60
2018-04-27T06:02:11.786Z,3.53
2018-04-27T06:04:40.029Z,3.80
2018-04-27T06:07:07.463Z,3.70
2018-04-27T06:09:35.901Z,3.60
2018-04-27T06:12:04.091Z,3.60
2018-04-27T06:14:31.867Z,3.83
2018-04-27T06:16:59.407Z,4.10
2018-04-27T06:19:26.951Z,3.83
2018-04-27T06:21:55.244Z,3.50
2018-04-27T06:24:22.742Z,3.23
2018-04-27T06:26:50.175Z,3.60
2018-04-27T06:29:17.620Z,3.30
2018-04-27T06:31:45.122Z,4.33
2018-04-27T06:34:13.247Z,3.50
2018-04-27T06:36:40.670Z,2.97
2018-04-27T06:39:08.886Z,3.47
2018-04-27T06:41:36.306Z,2.50
2018-04-27T06:44:04.505Z,2.37
2018-04-27T06:46:31.930Z,2.60
2018-04-27T06:49:00.134Z,2.67
2018-04-27T06:51:27.577Z,2.83
2018-04-27T06:53:55.766Z,2.73
2018-04-27T06:56:23.190Z,3.27
2018-04-27T06:58:50.684Z,2.80
2018-04-27T07:01:18.173Z,2.67
2018-04-27T07:03:45.663Z,2.50
2018-04-27T07:06:13.109Z,3.03
2018-04-27T07:08:40.547Z,3.27
2018-04-27T07:11:07.982Z,3.17
2018-04-27T07:13:35.423Z,2.97
2018-04-27T07:16:02.842Z,2.80
2018-04-27T07:18:31.060Z,2.63
2018-04-27T07:20:58.490Z,2.57
2018-04-27T07:23:26.690Z,2.70
2018-04-27T07:25:54.192Z,2.50
2018-04-27T07:28:21.550Z,2.40
2018-04-27T07:30:49.765Z,3.10
2018-04-27T07:33:17.195Z,2.83
2018-04-27T07:35:45.402Z,2.90
2018-04-27T07:38:12.837Z,2.83
2018-04-27T07:40:40.269Z,2.90
2018-04-27T07:43:07.686Z,2.60
2018-04-27T07:45:35.126Z,2.40
2018-04-27T07:48:02.556Z,2.40
2018-04-27T07:50:30.755Z,2.03
2018-04-27T07:52:58.188Z,3.00
2018-04-27T07:55:25.697Z,2.80
2018-04-27T07:57:53.814Z,2.47
2018-04-27T08:00:21.275Z,2.13
2018-04-27T08:02:49.470Z,2.10
2018-04-27T08:05:16.924Z,2.60
2018-04-27T08:07:44.339Z,2.30
2018-04-27T08:10:12.542Z,2.20
2018-04-27T08:12:39.982Z,2.53
2018-04-27T08:15:07.414Z,2.57
2018-04-27T08:17:34.919Z,2.00
2018-04-27T08:20:02.346Z,2.07
2018-04-27T08:22:29.774Z,2.37
2018-04-27T08:24:57.205Z,1.83
2018-04-27T08:27:24.635Z,2.47
2018-04-27T08:29:52.072Z,2.40
2018-04-27T08:32:20.275Z,2.23
2018-04-27T08:34:47.731Z,1.70
2018-04-27T08:37:15.171Z,1.70
2018-04-27T08:39:43.364Z,1.67
2018-04-27T08:42:10.804Z,2.10
2018-04-27T08:44:38.243Z,1.60
2018-04-27T08:47:06.434Z,1.90
2018-04-27T08:49:33.878Z,1.87
2018-04-27T08:52:02.120Z,1.93
2018-04-27T08:54:29.572Z,2.50
2018-04-27T08:56:57.006Z,2.60
2018-04-27T08:59:24.447Z,1.67
2018-04-27T09:01:51.898Z,1.93
2018-04-27T09:04:19.331Z,1.93
2018-04-27T09:06:47.544Z,1.77
2018-04-27T09:09:14.974Z,1.50
2018-04-27T09:11:42.410Z,2.20
2018-04-27T09:14:10.614Z,2.20
2018-04-27T09:16:38.044Z,1.90
2018-04-27T09:19:06.243Z,2.13
2018-04-27T09:21:33.689Z,1.93
2018-04-27T09:24:01.116Z,1.67
2018-04-27T09:26:28.546Z,1.73
2018-04-27T09:28:55.984Z,2.43
2018-04-27T09:31:23.423Z,2.20
2018-04-27T09:33:50.845Z,1.90
2018-04-27T09:36:19.057Z,2.07
2018-04-27T09:38:46.478Z,1.83
2018-04-27T09:41:14.690Z,2.20
2018-04-27T09:43:42.142Z,2.30
2018-04-27T09:46:10.338Z,2.47
2018-04-27T09:48:37.779Z,2.30
2018-04-27T09:51:06.013Z,1.80
2018-04-27T09:53:34.269Z,2.50
2018-04-27T09:56:01.699Z,2.00
2018-04-27T09:58:29.133Z,2.23
2018-04-27T10:00:57.340Z,2.80
2018-04-27T10:03:24.771Z,1.90
2018-04-27T10:05:52.215Z,2.47
2018-04-27T10:08:19.642Z,2.30
2018-04-27T10:10:47.848Z,2.07
2018-04-27T10:13:15.275Z,2.23
2018-04-27T10:15:43.483Z,2.67
2018-04-27T10:18:10.918Z,2.30
2018-04-27T10:20:38.347Z,2.17
2018-04-27T10:23:06.549Z,2.70
2018-04-27T10:25:33.982Z,2.40
2018-04-27T10:28:02.189Z,2.20
2018-04-27T10:30:29.640Z,2.40
2018-04-27T10:32:57.063Z,2.53
2018-04-27T10:35:25.263Z,2.43
2018-04-27T10:37:52.699Z,2.40
2018-04-27T10:40:20.905Z,2.77
2018-04-27T10:42:48.339Z,3.30
2018-04-27T10:45:15.768Z,2.63
2018-04-27T10:47:43.198Z,2.47
2018-04-27T10:50:10.671Z,3.00
2018-04-27T10:52:38.136Z,2.50
2018-04-27T10:55:05.559Z,2.40
2018-04-27T10:57:33.006Z,2.43
2018-04-27T11:00:00.439Z,2.20
2018-04-27T11:02:27.869Z,2.30
2018-04-27T11:04:56.070Z,2.30
2018-04-27T11:07:23.513Z,2.60
2018-04-27T11:09:51.713Z,2.70
2018-04-27T11:12:19.148Z,2.90
2018-04-27T11:14:46.632Z,2.80
2018-04-27T11:17:14.073Z,3.30
2018-04-27T11:19:41.498Z,3.17
2018-04-27T11:22:08.942Z,3.73
2018-04-27T11:24:36.366Z,3.57
2018-04-27T11:27:03.810Z,2.83
2018-04-27T11:29:31.251Z,2.97
2018-04-27T11:31:58.683Z,2.47
2018-04-27T11:34:26.886Z,3.07
2018-04-27T11:36:54.316Z,2.60
2018-04-27T11:39:22.522Z,3.30
2018-04-27T11:41:49.967Z,3.10
2018-04-27T11:44:17.399Z,2.70
2018-04-27T11:46:44.832Z,3.13
2018-04-27T11:49:12.262Z,3.10
2018-04-27T11:51:39.738Z,3.20
2018-04-27T11:54:07.175Z,3.30
2018-04-27T11:56:34.617Z,3.33
2018-04-27T11:59:02.047Z,3.13
2018-04-27T12:01:29.494Z,4.13
2018-04-27T12:03:57.692Z,3.90
2018-04-27T12:06:25.122Z,3.67
2018-04-27T12:08:53.314Z,4.30
2018-04-27T12:11:20.738Z,3.00
2018-04-27T12:13:48.951Z,3.63
2018-04-27T12:16:16.396Z,3.50
2018-04-27T12:18:43.835Z,3.50
2018-04-27T12:21:12.031Z,4.50
2018-04-27T12:23:39.475Z,5.60
2018-04-27T12:26:06.906Z,4.07
2018-04-27T12:28:34.334Z,4.63
2018-04-27T12:31:01.845Z,4.60
2018-04-27T12:33:29.222Z,4.00
2018-04-27T12:35:56.655Z,4.20
2018-04-27T12:38:24.119Z,5.07
2018-04-27T12:40:51.550Z,4.80
2018-04-27T12:43:19.750Z,3.97
2018-04-27T12:45:47.187Z,4.93
2018-04-27T12:48:15.404Z,4.27
2018-04-27T12:50:42.836Z,4.93
2018-04-27T12:53:10.278Z,3.83
2018-04-27T12:55:38.473Z,3.87
2018-04-27T12:58:05.951Z,4.57
2018-04-27T13:00:33.387Z,4.20
2018-04-27T13:03:00.814Z,4.87
2018-04-27T13:05:29.008Z,5.17
2018-04-27T13:07:56.451Z,5.40
2018-04-27T13:10:24.650Z,4.20
2018-04-27T13:12:52.855Z,3.77
2018-04-27T13:15:20.287Z,4.80
2018-04-27T13:17:47.734Z,4.73
2018-04-27T13:20:15.191Z,5.07
2018-04-27T13:22:42.615Z,3.93
2018-04-27T13:25:10.821Z,3.90
2018-04-27T13:27:38.291Z,4.57
2018-04-27T13:30:05.711Z,3.90
2018-04-27T13:32:33.147Z,3.70
2018-04-27T13:35:01.350Z,4.40
2018-04-27T13:37:28.782Z,4.70
2018-04-27T13:39:57.029Z,4.80
2018-04-27T13:42:24.434Z,4.10
2018-04-27T13:44:51.866Z,3.50
2018-04-27T13:47:20.066Z,4.27
2018-04-27T13:49:47.491Z,4.20
2018-04-27T13:52:15.737Z,4.60
2018-04-27T13:54:43.223Z,4.30
2018-04-27T13:57:11.471Z,4.50
2018-04-27T13:59:38.917Z,4.07
2018-04-27T14:02:06.346Z,4.20
2018-04-27T14:04:33.773Z,3.90
2018-04-27T14:07:01.982Z,4.33
2018-04-27T14:09:29.423Z,4.10
2018-04-27T14:11:56.872Z,3.93
2018-04-27T14:14:25.063Z,4.33
2018-04-27T14:16:52.493Z,3.53
2018-04-27T14:19:20.698Z,4.60
2018-04-27T14:21:48.141Z,4.37
2018-04-27T14:24:15.574Z,4.17
2018-04-27T14:26:43.863Z,4.43
2018-04-27T14:29:11.227Z,4.10
2018-04-27T14:31:38.649Z,4.47
2018-04-27T14:34:06.078Z,3.70
2018-04-27T14:36:33.505Z,4.30
2018-04-27T14:39:00.955Z,3.33
2018-04-27T14:41:28.379Z,4.27
2018-04-27T14:43:56.610Z,3.97
2018-04-27T14:46:24.309Z,3.50
2018-04-27T14:48:52.030Z,4.50
2018-04-27T14:51:19.674Z,3.80
2018-04-27T14:53:47.166Z,4.20
2018-04-27T14:56:14.601Z,4.30
2018-04-27T14:58:42.046Z,4.17
2018-04-27T15:01:09.491Z,3.90
2018-04-27T15:03:54.470Z,3.80
2018-04-27T15:06:21.899Z,3.90
2018-04-27T15:08:50.106Z,3.87
2018-04-27T15:11:17.538Z,3.23
2018-04-27T15:13:44.970Z,3.30
2018-04-27T15:16:13.169Z,3.27
2018-04-27T15:18:42.554Z,3.37
2018-04-27T15:21:10.759Z,3.07
2018-04-27T15:23:38.199Z,3.40
2018-04-27T15:26:05.634Z,3.83
2018-04-27T15:28:34.012Z,3.07
2018-04-27T15:31:02.208Z,3.30
2018-04-27T15:33:29.638Z,3.00
2018-04-27T15:35:57.839Z,3.80
2018-04-27T15:38:25.971Z,3.30
2018-04-27T15:40:55.118Z,3.40
2018-04-27T15:43:22.552Z,3.30
2018-04-27T15:45:49.987Z,3.47
2018-04-27T15:48:18.187Z,3.47
2018-04-27T15:50:45.625Z,3.50
2018-04-27T15:53:14.362Z,3.37
2018-04-27T15:55:41.802Z,2.83
2018-04-27T15:58:09.246Z,2.97
2018-04-27T16:00:36.746Z,3.30
2018-04-27T16:03:04.170Z,3.20
2018-04-27T16:05:31.640Z,3.20
2018-04-27T16:07:59.085Z,2.83
2018-04-27T16:10:27.881Z,2.77
2018-04-27T16:16:01.102Z,2.60
2018-04-27T16:18:28.538Z,3.07
2018-04-27T16:20:55.975Z,3.03
2018-04-27T16:23:23.399Z,2.40
2018-04-27T16:25:50.838Z,3.27
2018-04-27T16:28:18.262Z,2.80
2018-04-27T16:30:45.704Z,2.90
2018-04-27T16:33:13.184Z,3.37
2018-04-27T16:35:40.629Z,3.13
2018-04-27T16:38:08.098Z,3.17
2018-04-27T16:40:35.583Z,2.80
2018-04-27T16:43:03.018Z,2.50
2018-04-27T16:45:30.462Z,3.10
2018-04-27T16:47:57.896Z,3.23
2018-04-27T16:50:25.387Z,3.40
2018-04-27T16:52:52.862Z,3.17
2018-04-27T16:55:20.388Z,3.13
2018-04-27T16:57:47.900Z,3.23
2018-04-27T17:00:16.322Z,3.03
2018-04-27T17:02:43.805Z,2.30
2018-04-27T17:05:11.256Z,3.77
2018-04-27T17:07:38.723Z,3.00
2018-04-27T17:10:06.201Z,2.90
2018-04-27T17:12:33.685Z,2.53
2018-04-27T17:15:01.128Z,2.97
2018-04-27T17:17:29.411Z,3.37
2018-04-27T17:19:56.950Z,3.20
2018-04-27T17:22:24.434Z,4.47
2018-04-27T17:24:51.838Z,4.00
2018-04-27T17:27:19.495Z,3.93
2018-04-27T17:29:46.946Z,2.90
2018-04-27T17:32:14.394Z,3.80
2018-04-27T17:34:41.966Z,3.20
2018-04-27T17:37:09.485Z,3.57
2018-04-27T17:39:36.943Z,3.40
2018-04-27T17:42:04.415Z,4.20
2018-04-27T17:44:31.905Z,3.53
2018-04-27T17:46:59.404Z,3.77
2018-04-27T17:49:27.665Z,3.37
2018-04-27T17:51:55.951Z,3.67
2018-04-27T17:54:23.720Z,4.23
2018-04-27T17:56:51.574Z,3.63
2018-04-27T17:59:19.222Z,3.80
2018-04-27T18:01:46.659Z,4.30
2018-04-27T18:04:14.103Z,3.93
2018-04-27T18:06:42.324Z,3.43
2018-04-27T18:09:10.531Z,3.87
2018-04-27T18:11:37.988Z,3.50
2018-04-27T18:14:05.409Z,3.63
2018-04-27T18:16:33.603Z,3.73
2018-04-27T18:19:01.030Z,3.07
2018-04-27T18:21:29.316Z,3.40
2018-04-27T18:23:57.576Z,3.33
2018-04-27T18:26:25.046Z,3.20
2018-04-27T18:28:53.256Z,3.37
2018-04-27T18:31:20.765Z,3.40
2018-04-27T18:33:48.254Z,3.20
2018-04-27T18:36:15.770Z,2.60
2018-04-27T18:38:43.256Z,3.17
2018-04-27T18:41:10.692Z,3.40
2018-04-27T18:43:38.163Z,3.20
2018-04-27T18:46:05.559Z,3.63
2018-04-27T18:48:32.995Z,3.93
2018-04-27T18:51:00.467Z,4.70
2018-04-27T18:53:29.699Z,4.53
2018-04-27T18:55:57.135Z,4.43
2018-04-27T18:58:24.566Z,4.47
2018-04-27T19:00:52.823Z,4.47
2018-04-27T19:03:20.341Z,3.97
2018-04-27T19:05:48.498Z,3.80
2018-04-27T19:08:15.933Z,3.23
2018-04-27T19:10:44.804Z,3.87
2018-04-27T19:13:12.249Z,4.17
2018-04-27T19:15:40.446Z,3.70
2018-04-27T19:18:07.891Z,4.50
2018-04-27T19:20:35.323Z,4.43
2018-04-27T19:23:13.094Z,4.13
2018-04-27T19:25:51.793Z,3.90
2018-04-27T19:28:20.014Z,3.97
2018-04-27T19:30:47.435Z,4.47
2018-04-27T19:33:14.986Z,4.87
2018-04-27T19:35:42.438Z,5.27
2018-04-27T19:38:10.713Z,5.30
2018-04-27T19:40:38.216Z,4.40
2018-04-27T19:43:05.789Z,4.17
2018-04-27T19:45:33.868Z,5.03
2018-04-27T19:48:02.098Z,4.57
2018-04-27T19:50:29.535Z,5.13
2018-04-27T19:52:56.976Z,5.10
2018-04-27T19:55:24.418Z,5.63
2018-04-27T19:57:52.622Z,4.27
2018-04-27T20:00:21.523Z,4.40
2018-04-27T20:02:48.971Z,3.67
2018-04-27T20:05:16.421Z,4.00
2018-04-27T20:07:43.868Z,4.03
2018-04-27T20:10:13.071Z,4.90
2018-04-27T20:12:40.567Z,3.70
2018-04-27T20:15:08.009Z,3.80
2018-04-27T20:17:39.806Z,3.60
2018-04-27T20:20:22.928Z,3.63
2018-04-27T20:22:51.153Z,3.73
2018-04-27T20:25:18.854Z,3.83
2018-04-27T20:27:46.554Z,3.23
2018-04-27T20:30:14.171Z,3.60
2018-04-27T20:32:43.533Z,3.63
2018-04-27T20:35:13.871Z,4.03
2018-04-27T20:37:41.325Z,3.17
2018-04-27T20:40:08.787Z,4.00
2018-04-27T20:42:36.233Z,3.40
2018-04-27T20:45:07.183Z,3.40
2018-04-27T20:47:34.639Z,3.33
2018-04-27T20:50:02.116Z,2.50
2018-04-27T20:52:36.037Z,2.27
2018-04-27T20:55:06.159Z,2.30
2018-04-27T20:57:34.374Z,2.40
2018-04-27T21:00:01.825Z,2.30
2018-04-27T21:02:29.243Z,2.17
2018-04-27T21:04:57.446Z,2.10
2018-04-27T21:07:24.894Z,2.07
2018-04-27T21:09:52.331Z,2.00
2018-04-27T21:12:20.530Z,2.17
2018-04-27T21:14:47.967Z,2.20
2018-04-27T21:17:16.175Z,2.10
2018-04-27T21:19:43.631Z,1.90
2018-04-27T21:22:11.079Z,2.00
2018-04-27T21:24:38.512Z,2.43
2018-04-27T21:27:06.719Z,2.27
2018-04-27T21:29:34.214Z,1.93
2018-04-27T21:32:01.654Z,2.53
2018-04-27T21:34:29.095Z,2.40
2018-04-27T21:36:56.542Z,2.03
2018-04-27T21:39:24.793Z,2.30
2018-04-27T21:41:53.762Z,2.40
2018-04-27T21:44:25.530Z,1.90
2018-04-27T21:50:22.971Z,2.50
2018-04-27T21:52:52.346Z,2.20
2018-04-27T21:55:19.792Z,2.80
2018-04-27T21:57:50.645Z,2.23
2018-04-27T22:00:19.539Z,3.20
2018-04-27T22:03:12.355Z,2.97
2018-04-27T22:08:47.358Z,2.77
2018-04-27T22:11:20.430Z,3.00
2018-04-27T22:13:47.884Z,2.90
2018-04-27T22:16:16.224Z,2.67
2018-04-27T22:18:44.429Z,3.67
2018-04-27T22:21:11.882Z,2.90
2018-04-27T22:23:39.340Z,2.60
2018-04-27T22:26:24.463Z,2.80
2018-04-27T22:28:53.303Z,3.37
2018-04-27T22:31:22.551Z,2.57
2018-04-27T22:33:50.779Z,2.63
2018-04-27T22:36:23.757Z,2.40
2018-04-27T22:39:01.759Z,2.73
2018-04-27T22:41:29.188Z,3.10
2018-04-27T22:43:57.395Z,2.77
2018-04-27T22:46:24.839Z,3.33
2018-04-27T22:48:55.016Z,3.70
2018-04-27T22:51:23.854Z,3.50
2018-04-27T22:53:52.652Z,3.30
2018-04-27T22:59:28.882Z,3.27
2018-04-27T23:02:02.779Z,4.03
2018-04-27T23:04:30.222Z,4.33
2018-04-27T23:06:57.646Z,4.33
2018-04-27T23:09:25.890Z,4.73
2018-04-27T23:11:54.157Z,4.17
2018-04-27T23:14:28.138Z,4.30
2018-04-27T23:16:55.571Z,4.23
2018-04-27T23:19:26.990Z,3.47
2018-04-27T23:21:55.206Z,3.40
2018-04-27T23:24:22.701Z,3.80
2018-04-27T23:26:50.165Z,3.40
2018-04-27T23:29:18.380Z,3.80
2018-04-27T23:31:53.166Z,3.23
2018-04-27T23:34:23.171Z,3.27
2018-04-27T23:36:51.432Z,3.50
2018-04-27T23:39:18.871Z,2.63
2018-04-27T23:41:46.370Z,3.00
2018-04-27T23:44:14.616Z,2.80
2018-04-27T23:46:42.110Z,3.13
2018-04-27T23:49:10.395Z,3.00
2018-04-27T23:51:37.832Z,3.43
2018-04-27T23:54:07.767Z,2.63
2018-04-27T23:56:39.781Z,3.37
2018-04-27T23:59:07.252Z,2.73
